LDSP Airport Information

Runway Information
Runway 05 Length 8366 ft width 148 ft
Elevation 70 ft Threshold 0 ft Heading 53
Runway 23 Length 8366 ft Width 148 ft
Elevation 50 ft Threshold 525 ft Heading 233
Airport Frequencies
Type APP Name APP Frequency 120.875 MHZ
Type INFO Name INFO Frequency 128.675 MHZ
Type TWR Name TWR Frequency 124.675 MHZ
Airport Navaids
Type NDB Name Drvenik Frequency 418 KHZ
Type VOR-DME Name Split Frequency 115700 KHZ
Type NDB Name Trogir Frequency 378 KHZ
Airport Weather Information & NOTAM
Deprecated: The each() function is deprecated. This message will be suppressed on further calls in /storage/content/79/1005879/virtualnac.org/public_html/v2/lib/functions.php on line 164 ADDS - METARS form results

(2023 UTC 19 January 2021)
Data provider http://aviationweather.gov/metar/data/
 
METAR text: LDSP 192000Z 32006KT CAVOK 06/00 Q1025 NOSIG
Conditions at: LDSP (SPLIT/KASTEL STA, HR) observed 2000 UTC 19 January 2021
Temperature: 6.0°C (43°F)
Dewpoint: 0.0°C (32°F) [RH = 65%]
Pressure (altimeter): 30.27 inches Hg (1025.0 mb)
Winds: from the NW (320 degrees) at 7 MPH (6 knots; 3.1 m/s)
Visibility: 6 or more miles (10+ km)
Ceiling: ceiling and visibility are OK
Clouds: unknown
Weather: no significant weather observed at this time

METAR text: LDSP 191930Z 32005KT CAVOK 06/00 Q1025 NOSIG
Conditions at: LDSP (SPLIT/KASTEL STA, HR) observed 1930 UTC 19 January 2021
Temperature: 6.0°C (43°F)
Dewpoint: 0.0°C (32°F) [RH = 65%]
Pressure (altimeter): 30.27 inches Hg (1025.0 mb)
Winds: from the NW (320 degrees) at 6 MPH (5 knots; 2.6 m/s)
Visibility: 6 or more miles (10+ km)
Ceiling: ceiling and visibility are OK
Clouds: unknown
Weather: no significant weather observed at this time

Forecast for: LDSP (SPLIT/KASTEL STA, HR)
Text: TAF LDSP 191725Z 1918/2018 VRB02KT 9999 SCT040 TX12/2012Z TN04/2001Z
Forecast period: 1800 UTC 19 January 2021 to 1000 UTC 20 January 2021
Forecast type: FROM: standard forecast or significant change
Winds: variable direction winds at 2 MPH (2 knots; 1.0 m/s)
Visibility: 6 or more miles (10+ km)
Ceiling: at least 12,000 feet AGL
Clouds: scattered clouds at 4000 feet AGL
Weather: no significant weather forecast for this period
Text: BECMG 2010/2012 11010KT
Forecast period: 1000 to 1800 UTC 20 January 2021
Forecast type: BECOMING: Conditions expected to become as follows by 1200 UTC 20 January 2021
Winds: from the ESE (110 degrees) at 12 MPH (10 knots; 5.1 m/s)
Visibility: 6 or more miles (10+ km)
Ceiling: at least 12,000 feet AGL
Clouds: scattered clouds at 4000 feet AGL
Weather: no significant weather forecast for this period